createdAt,value
2023-05-15T00:00:43.935Z,28.40
2023-05-15T00:03:11.827Z,32.90
2023-05-15T00:05:39.095Z,26.00
2023-05-15T00:08:11.179Z,25.40
2023-05-15T00:10:39.359Z,26.40
2023-05-15T00:13:08.081Z,22.50
2023-05-15T00:15:34.920Z,24.60
2023-05-15T00:18:07.042Z,24.00
2023-05-15T00:20:34.474Z,23.20
2023-05-15T00:23:01.876Z,19.60
2023-05-15T00:25:28.977Z,18.40
2023-05-15T00:27:55.742Z,16.50
2023-05-15T00:30:22.545Z,17.80
2023-05-15T00:32:54.632Z,17.60
2023-05-15T00:35:21.507Z,16.70
2023-05-15T00:37:48.326Z,22.40
2023-05-15T00:40:19.224Z,16.30
2023-05-15T00:42:46.346Z,15.10
2023-05-15T00:45:13.162Z,15.50
2023-05-15T00:47:40.589Z,19.50
2023-05-15T00:50:09.780Z,17.80
2023-05-15T00:52:36.945Z,20.80
2023-05-15T00:55:06.372Z,22.20
2023-05-15T00:57:33.484Z,23.60
2023-05-15T01:00:00.377Z,18.30
2023-05-15T01:02:27.381Z,18.50
2023-05-15T01:04:54.420Z,19.40
2023-05-15T01:07:22.108Z,15.40
2023-05-15T01:09:49.123Z,13.20
2023-05-15T01:12:16.368Z,13.10
2023-05-15T01:14:43.129Z,15.20
2023-05-15T01:17:09.973Z,13.50
2023-05-15T01:19:38.203Z,12.90
2023-05-15T01:22:16.721Z,15.60
2023-05-15T01:24:59.257Z,15.90
2023-05-15T01:27:39.457Z,13.90
2023-05-15T01:30:18.115Z,12.30
2023-05-15T01:33:23.457Z,11.90
2023-05-15T01:35:55.561Z,8.90
2023-05-15T01:38:55.626Z,13.00
2023-05-15T01:41:45.380Z,11.30
2023-05-15T01:44:19.694Z,12.00
2023-05-15T01:46:49.424Z,9.80
2023-05-15T01:49:18.380Z,10.00
2023-05-15T01:51:47.511Z,12.00
2023-05-15T01:54:14.556Z,14.30
2023-05-15T01:56:42.781Z,13.30
2023-05-15T01:59:09.815Z,11.90
2023-05-15T02:01:36.782Z,11.30
2023-05-15T02:04:08.893Z,9.50
2023-05-15T02:06:36.043Z,9.80
2023-05-15T02:09:04.466Z,10.80
2023-05-15T02:11:36.782Z,15.00
2023-05-15T02:14:04.449Z,13.40
2023-05-15T02:16:32.104Z,10.80
2023-05-15T02:18:59.231Z,16.50
2023-05-15T02:21:26.155Z,11.40
2023-05-15T02:23:53.357Z,15.50
2023-05-15T02:26:51.877Z,11.90
2023-05-15T02:29:23.150Z,14.80
2023-05-15T02:32:12.506Z,11.30
2023-05-15T02:34:49.670Z,12.40
2023-05-15T02:37:17.776Z,17.90
2023-05-15T02:39:45.608Z,19.30
2023-05-15T02:42:13.690Z,19.10
2023-05-15T02:44:41.936Z,25.00
2023-05-15T02:47:09.775Z,19.20
2023-05-15T02:49:37.203Z,21.10
2023-05-15T02:52:04.991Z,23.50
2023-05-15T02:54:32.234Z,25.10
2023-05-15T02:56:59.510Z,18.60
2023-05-15T02:59:26.554Z,21.10
2023-05-15T03:01:53.497Z,18.50
2023-05-15T03:04:20.424Z,20.00
2023-05-15T03:06:47.456Z,18.50
2023-05-15T03:09:14.346Z,19.20
2023-05-15T03:11:41.492Z,18.00
2023-05-15T03:14:08.413Z,20.60
2023-05-15T03:16:36.671Z,19.60
2023-05-15T03:19:04.044Z,16.60
2023-05-15T03:21:31.284Z,19.30
2023-05-15T03:23:58.087Z,20.80
2023-05-15T03:26:25.224Z,18.10
2023-05-15T03:28:53.027Z,18.50
2023-05-15T03:31:19.912Z,20.90
2023-05-15T03:33:49.454Z,19.10
2023-05-15T03:36:16.620Z,18.80
2023-05-15T03:38:44.045Z,19.60
2023-05-15T03:41:11.008Z,24.30
2023-05-15T03:43:37.938Z,20.20
2023-05-15T03:46:11.138Z,19.10
2023-05-15T03:48:40.862Z,16.80
2023-05-15T03:51:07.673Z,18.60
2023-05-15T03:53:34.426Z,18.80
2023-05-15T03:56:01.314Z,18.20
2023-05-15T03:58:28.227Z,17.30
2023-05-15T04:00:55.273Z,17.40
2023-05-15T04:03:22.201Z,19.60
2023-05-15T04:05:49.574Z,17.30
2023-05-15T04:08:21.701Z,17.00
2023-05-15T04:10:48.577Z,18.20
2023-05-15T04:13:15.585Z,18.00
2023-05-15T04:15:43.040Z,20.80
2023-05-15T04:18:10.914Z,15.30
2023-05-15T04:20:38.038Z,13.40
2023-05-15T04:23:05.248Z,20.00
2023-05-15T04:25:32.090Z,15.50
2023-05-15T04:27:59.106Z,16.80
2023-05-15T04:30:26.371Z,15.30
2023-05-15T04:32:53.402Z,20.00
2023-05-15T04:35:20.394Z,21.00
2023-05-15T04:37:47.576Z,20.70
2023-05-15T04:40:15.744Z,20.10
2023-05-15T04:42:43.104Z,22.60
2023-05-15T04:45:10.641Z,25.90
2023-05-15T04:47:38.080Z,20.20
2023-05-15T04:50:06.110Z,17.30
2023-05-15T04:52:33.324Z,18.80
2023-05-15T04:55:00.224Z,14.20
2023-05-15T04:57:27.113Z,16.40
2023-05-15T04:59:54.132Z,10.60
2023-05-15T05:02:24.224Z,12.20
2023-05-15T05:04:51.105Z,15.60
2023-05-15T05:07:18.056Z,15.40
2023-05-15T05:09:45.002Z,7.80
2023-05-15T05:12:11.790Z,12.00
2023-05-15T05:14:41.649Z,9.80
2023-05-15T05:17:09.112Z,16.10
2023-05-15T05:19:37.206Z,11.30
2023-05-15T05:22:04.772Z,16.50
2023-05-15T05:24:32.000Z,11.60
2023-05-15T05:26:59.753Z,14.70
2023-05-15T05:29:26.594Z,15.90
2023-05-15T05:31:53.730Z,12.60
2023-05-15T05:34:20.891Z,11.10
2023-05-15T05:36:48.311Z,13.20
2023-05-15T05:39:18.490Z,12.00
2023-05-15T05:41:45.655Z,15.70
2023-05-15T05:44:14.133Z,17.90
2023-05-15T05:46:41.066Z,18.50
2023-05-15T05:49:08.207Z,14.20
2023-05-15T05:51:36.574Z,10.70
2023-05-15T05:54:04.965Z,19.70
2023-05-15T05:56:34.571Z,21.20
2023-05-15T05:59:01.860Z,17.50
2023-05-15T06:01:29.110Z,17.40
2023-05-15T06:03:56.925Z,15.10
2023-05-15T06:06:23.984Z,25.60
2023-05-15T06:08:51.759Z,24.70
2023-05-15T06:11:19.510Z,22.90
2023-05-15T06:13:46.526Z,17.40
2023-05-15T06:16:13.479Z,17.50
2023-05-15T06:18:40.480Z,22.50
2023-05-15T06:21:08.531Z,21.60
2023-05-15T06:23:36.825Z,19.40
2023-05-15T06:26:03.920Z,21.70
2023-05-15T06:28:31.035Z,23.60
2023-05-15T06:30:58.218Z,21.40
2023-05-15T06:33:27.643Z,20.50
2023-05-15T06:35:55.100Z,21.80
2023-05-15T06:38:22.255Z,16.50
2023-05-15T06:40:51.804Z,18.60
2023-05-15T06:43:21.490Z,19.40
2023-05-15T06:45:49.071Z,15.50
2023-05-15T06:48:15.928Z,15.50
2023-05-15T06:50:42.913Z,11.70
2023-05-15T06:53:10.891Z,17.00
2023-05-15T07:03:46.900Z,11.60
2023-05-15T07:06:14.047Z,13.90
2023-05-15T07:08:41.019Z,15.60
2023-05-15T07:11:07.939Z,14.30
2023-05-15T07:13:34.926Z,11.90
2023-05-15T07:16:02.757Z,14.40
2023-05-15T07:18:30.174Z,6.90
2023-05-15T07:20:57.291Z,11.30
2023-05-15T07:23:24.160Z,8.90
2023-05-15T07:25:54.036Z,13.20
2023-05-15T07:28:22.392Z,10.60
2023-05-15T07:30:50.022Z,12.60
2023-05-15T07:33:21.925Z,10.70
2023-05-15T07:35:50.286Z,10.60
2023-05-15T07:38:17.820Z,7.10
2023-05-15T07:40:44.847Z,8.60
2023-05-15T07:43:11.889Z,9.00
2023-05-15T07:45:38.784Z,7.90
2023-05-15T07:48:16.527Z,10.60
2023-05-15T07:50:45.477Z,9.20
2023-05-15T07:53:13.472Z,11.70
2023-05-15T07:55:41.004Z,8.90
2023-05-15T07:58:07.811Z,21.10
2023-05-15T08:00:35.914Z,10.70
2023-05-15T08:03:02.874Z,10.80
2023-05-15T08:05:32.625Z,8.20
2023-05-15T08:08:00.307Z,6.40
2023-05-15T08:10:27.122Z,11.40
2023-05-15T08:12:53.999Z,6.30
2023-05-15T08:15:21.010Z,9.20
2023-05-15T08:17:47.857Z,7.30
2023-05-15T08:20:16.164Z,7.90
2023-05-15T08:22:43.014Z,4.70
2023-05-15T08:25:09.981Z,5.40
2023-05-15T08:27:39.303Z,6.40
2023-05-15T08:30:08.805Z,7.10
2023-05-15T08:32:35.888Z,5.30
2023-05-15T08:35:02.832Z,6.50
2023-05-15T08:37:31.371Z,6.80
2023-05-15T08:39:58.136Z,5.00
2023-05-15T08:42:31.343Z,7.30
2023-05-15T08:45:00.547Z,6.80
2023-05-15T08:47:28.519Z,4.90
2023-05-15T08:50:13.676Z,10.30
2023-05-15T08:52:47.143Z,5.80
2023-05-15T08:55:14.686Z,6.60
2023-05-15T08:57:42.047Z,6.20
2023-05-15T09:00:11.459Z,7.60
2023-05-15T09:02:39.167Z,7.00
2023-05-15T09:05:06.727Z,7.70
2023-05-15T09:07:33.758Z,4.20
2023-05-15T09:10:01.783Z,5.00
2023-05-15T09:12:28.693Z,10.20
2023-05-15T09:15:17.148Z,6.60
2023-05-15T09:17:44.568Z,3.80
2023-05-15T09:20:34.365Z,4.20
2023-05-15T09:23:03.339Z,4.00
2023-05-15T09:25:41.131Z,5.50
2023-05-15T09:28:24.431Z,5.90
2023-05-15T09:30:56.684Z,3.50
2023-05-15T09:33:36.688Z,3.60
2023-05-15T09:36:04.846Z,3.70
2023-05-15T09:38:41.589Z,7.10
2023-05-15T09:41:08.599Z,6.30
2023-05-15T09:43:39.280Z,3.70
2023-05-15T09:46:12.482Z,3.10
2023-05-15T09:48:39.735Z,5.30
2023-05-15T09:51:17.492Z,5.00
2023-05-15T09:53:53.733Z,7.30
2023-05-15T09:56:21.459Z,4.70
2023-05-15T09:58:54.949Z,6.40
2023-05-15T10:01:25.330Z,5.10
2023-05-15T10:04:00.010Z,6.90
2023-05-15T10:06:26.986Z,10.00
2023-05-15T10:08:54.185Z,4.40
2023-05-15T10:11:22.153Z,5.00
2023-05-15T10:13:49.316Z,5.10
2023-05-15T10:16:16.183Z,4.50
2023-05-15T10:18:45.312Z,6.00
2023-05-15T10:21:12.207Z,4.90
2023-05-15T10:23:40.543Z,4.50
2023-05-15T10:26:15.914Z,5.40
2023-05-15T10:28:44.806Z,5.80
2023-05-15T10:31:11.913Z,4.70
2023-05-15T10:33:38.760Z,6.30
2023-05-15T10:36:05.872Z,5.10
2023-05-15T10:38:33.181Z,4.30
2023-05-15T10:41:16.143Z,4.90
2023-05-15T10:43:44.495Z,15.80
2023-05-15T10:46:11.307Z,6.20
2023-05-15T10:48:38.366Z,5.90
2023-05-15T10:51:05.300Z,3.90
2023-05-15T10:53:32.843Z,4.50
2023-05-15T10:55:59.733Z,3.00
2023-05-15T10:58:26.475Z,4.00
2023-05-15T11:00:53.352Z,4.90
2023-05-15T11:03:48.593Z,5.40
2023-05-15T11:06:16.610Z,6.40
2023-05-15T11:08:44.630Z,11.80
2023-05-15T11:11:55.257Z,6.70
2023-05-15T11:14:28.322Z,5.50
2023-05-15T11:16:56.895Z,14.70
2023-05-15T11:19:53.884Z,6.50
2023-05-15T11:22:30.836Z,6.50
2023-05-15T11:24:59.449Z,6.70
2023-05-15T11:27:28.509Z,8.70
2023-05-15T11:30:07.974Z,9.50
2023-05-15T11:32:47.412Z,7.80
2023-05-15T11:35:32.153Z,4.80
2023-05-15T11:38:03.389Z,6.50
2023-05-15T11:40:31.994Z,4.30
2023-05-15T11:43:21.275Z,11.70
2023-05-15T11:45:52.130Z,4.70
2023-05-15T11:48:19.291Z,4.20
2023-05-15T11:50:46.513Z,8.60
2023-05-15T11:53:14.156Z,8.70
2023-05-15T11:55:42.772Z,4.30
2023-05-15T11:58:14.602Z,7.30
2023-05-15T12:00:42.388Z,7.70
2023-05-15T12:03:17.185Z,13.70
2023-05-15T12:05:54.057Z,9.80
2023-05-15T12:08:25.756Z,12.50
2023-05-15T12:10:53.281Z,11.10
2023-05-15T12:13:20.664Z,10.70
2023-05-15T12:15:47.620Z,4.80
2023-05-15T12:18:14.659Z,10.90
2023-05-15T12:20:46.184Z,8.90
2023-05-15T12:23:16.928Z,6.70
2023-05-15T12:25:45.107Z,6.00
2023-05-15T12:28:12.139Z,12.60
2023-05-15T12:30:39.317Z,9.30
2023-05-15T12:33:07.088Z,6.40
2023-05-15T12:35:36.875Z,7.50
2023-05-15T12:38:04.745Z,10.50
2023-05-15T12:40:35.375Z,7.20
2023-05-15T12:43:06.518Z,6.10
2023-05-15T12:45:34.779Z,6.60
2023-05-15T12:48:03.202Z,7.00
2023-05-15T12:50:32.293Z,9.70
2023-05-15T12:53:05.758Z,7.00
2023-05-15T12:55:34.340Z,6.00
2023-05-15T12:58:08.732Z,7.90
2023-05-15T13:00:36.726Z,9.00
2023-05-15T13:03:06.112Z,9.30
2023-05-15T13:05:34.415Z,11.00
2023-05-15T13:08:05.800Z,5.70
2023-05-15T13:10:33.805Z,19.80
2023-05-15T13:13:00.844Z,11.80
2023-05-15T13:15:30.155Z,7.90
2023-05-15T13:18:01.328Z,8.60
2023-05-15T13:20:29.598Z,5.10
2023-05-15T13:22:56.400Z,7.40
2023-05-15T13:25:23.150Z,4.40
2023-05-15T13:27:50.375Z,7.70
2023-05-15T13:30:17.792Z,7.10
2023-05-15T13:32:45.272Z,7.20
2023-05-15T13:35:12.379Z,4.00
2023-05-15T13:37:39.411Z,9.70
2023-05-15T13:40:10.239Z,9.40
2023-05-15T13:42:38.028Z,12.40
2023-05-15T13:45:05.365Z,6.90
2023-05-15T13:47:32.575Z,9.80
2023-05-15T13:50:00.342Z,9.50
2023-05-15T13:52:27.351Z,7.50
2023-05-15T13:54:55.512Z,6.00
2023-05-15T13:57:22.601Z,6.80
2023-05-15T13:59:49.659Z,7.30
2023-05-15T14:02:16.498Z,5.60
2023-05-15T14:04:43.412Z,9.90
2023-05-15T14:07:10.757Z,9.00
2023-05-15T14:09:38.148Z,7.80
2023-05-15T14:12:05.016Z,3.80
2023-05-15T14:14:32.113Z,7.80
2023-05-15T14:16:59.032Z,6.50
2023-05-15T14:19:26.423Z,7.70
2023-05-15T14:21:53.608Z,6.00
2023-05-15T14:24:20.441Z,4.80
2023-05-15T14:26:48.000Z,8.60
2023-05-15T14:29:14.817Z,5.90
2023-05-15T14:31:42.733Z,8.60
2023-05-15T14:34:09.666Z,12.60
2023-05-15T14:36:36.808Z,6.90
2023-05-15T14:39:03.729Z,8.60
2023-05-15T14:41:31.239Z,4.40
2023-05-15T14:43:58.327Z,5.20
2023-05-15T14:46:25.771Z,8.70
2023-05-15T14:48:55.421Z,8.50
2023-05-15T14:51:27.421Z,4.10
2023-05-15T14:53:54.394Z,5.30
2023-05-15T14:56:21.897Z,10.30
2023-05-15T14:58:50.462Z,4.60
2023-05-15T15:01:17.370Z,6.60
2023-05-15T15:03:44.883Z,6.10
2023-05-15T15:06:12.576Z,6.40
2023-05-15T15:08:39.338Z,8.10
2023-05-15T15:11:07.605Z,5.80
2023-05-15T15:13:35.000Z,8.40
2023-05-15T15:16:02.153Z,9.30
2023-05-15T15:18:29.296Z,7.10
2023-05-15T15:20:56.390Z,10.70
2023-05-15T15:23:23.356Z,9.50
2023-05-15T15:25:50.365Z,8.10
2023-05-15T15:28:22.473Z,5.30
2023-05-15T15:30:49.347Z,5.70
2023-05-15T15:33:16.280Z,10.60
2023-05-15T15:35:43.604Z,7.90
2023-05-15T15:38:13.131Z,5.70
2023-05-15T15:40:40.360Z,13.30
2023-05-15T15:43:07.627Z,7.00
2023-05-15T15:45:34.605Z,9.90
2023-05-15T15:48:01.639Z,7.20
2023-05-15T15:50:28.940Z,5.00
2023-05-15T15:52:55.763Z,6.90
2023-05-15T15:55:22.714Z,6.40
2023-05-15T15:57:49.804Z,9.70
2023-05-15T16:00:17.380Z,6.80
2023-05-15T16:02:45.062Z,11.00
2023-05-15T16:05:12.701Z,6.30
2023-05-15T16:07:39.944Z,5.40
2023-05-15T16:10:12.822Z,4.70
2023-05-15T16:12:41.917Z,7.50
2023-05-15T16:15:21.590Z,5.30
2023-05-15T16:17:52.861Z,7.00
2023-05-15T16:20:21.157Z,7.40
2023-05-15T16:22:48.096Z,4.70
2023-05-15T16:25:14.987Z,10.70
2023-05-15T16:27:42.263Z,7.00
2023-05-15T16:30:11.116Z,6.80
2023-05-15T16:32:39.004Z,10.30
2023-05-15T16:35:07.123Z,7.40
2023-05-15T16:37:35.223Z,7.50
2023-05-15T16:40:03.433Z,11.40
2023-05-15T16:42:35.464Z,9.60
2023-05-15T16:45:03.442Z,11.20
2023-05-15T16:47:31.188Z,12.30
2023-05-15T16:49:58.854Z,8.50
2023-05-15T16:52:26.131Z,13.30
2023-05-15T16:54:54.218Z,9.80
2023-05-15T16:57:21.281Z,11.60
2023-05-15T16:59:49.251Z,11.30
2023-05-15T17:02:16.906Z,9.00
2023-05-15T17:04:43.762Z,9.40
2023-05-15T17:07:11.255Z,9.00
2023-05-15T17:09:40.291Z,9.20
2023-05-15T17:12:07.606Z,15.10
2023-05-15T17:14:35.410Z,14.00
2023-05-15T17:17:02.420Z,13.00
2023-05-15T17:19:34.075Z,16.40
2023-05-15T17:22:00.918Z,8.60
2023-05-15T17:24:38.538Z,12.50
2023-05-15T17:27:15.772Z,12.80
2023-05-15T17:29:42.684Z,9.60
2023-05-15T17:32:09.774Z,20.80
2023-05-15T17:34:37.206Z,23.50
2023-05-15T17:37:06.333Z,17.60
2023-05-15T17:39:33.507Z,24.70
2023-05-15T17:42:02.852Z,15.00
2023-05-15T17:44:36.261Z,17.80
2023-05-15T17:47:03.348Z,21.50
2023-05-15T17:49:30.695Z,17.80
2023-05-15T17:51:58.362Z,34.50
2023-05-15T17:54:25.716Z,29.80
2023-05-15T17:56:52.933Z,25.60
2023-05-15T17:59:19.814Z,23.10
2023-05-15T18:01:46.746Z,22.60
2023-05-15T18:04:14.213Z,18.80
2023-05-15T18:06:41.582Z,29.00
2023-05-15T18:09:09.242Z,21.10
2023-05-15T18:11:36.765Z,25.80
2023-05-15T18:14:03.736Z,18.50
2023-05-15T18:16:32.273Z,25.70
2023-05-15T18:19:04.557Z,25.10
2023-05-15T18:21:32.284Z,15.50
2023-05-15T18:23:59.290Z,19.10
2023-05-15T18:26:28.614Z,34.20
2023-05-15T18:28:55.923Z,30.20
2023-05-15T18:31:22.833Z,17.80
2023-05-15T18:33:49.789Z,20.70
2023-05-15T18:36:16.577Z,14.20
2023-05-15T18:38:49.261Z,10.00
2023-05-15T18:41:16.335Z,14.10
2023-05-15T18:43:43.260Z,9.40
2023-05-15T18:46:10.328Z,9.40
2023-05-15T18:48:37.324Z,13.40
2023-05-15T18:51:04.218Z,10.90
2023-05-15T18:53:31.087Z,10.80
2023-05-15T18:55:57.940Z,16.60
2023-05-15T18:58:25.009Z,9.60
2023-05-15T19:00:52.088Z,10.20
2023-05-15T19:03:20.936Z,19.40
2023-05-15T19:05:48.423Z,10.90
2023-05-15T19:08:15.329Z,9.40
2023-05-15T19:10:47.989Z,7.10
2023-05-15T19:13:14.913Z,20.50
2023-05-15T19:15:50.183Z,24.80
2023-05-15T19:20:49.445Z,21.60
2023-05-15T19:23:16.752Z,12.10
2023-05-15T19:25:44.374Z,15.20
2023-05-15T19:28:13.015Z,17.70
2023-05-15T19:30:40.888Z,25.70
2023-05-15T19:33:08.419Z,31.00
2023-05-15T19:35:37.486Z,14.50
2023-05-15T19:38:05.056Z,18.90
2023-05-15T19:40:32.195Z,17.20
2023-05-15T19:42:59.001Z,12.30
2023-05-15T19:45:25.884Z,12.90
2023-05-15T19:47:52.754Z,10.80
2023-05-15T19:50:19.782Z,14.70
2023-05-15T19:52:47.027Z,23.40
2023-05-15T19:55:13.939Z,21.00
2023-05-15T19:57:42.109Z,10.00
2023-05-15T20:00:10.020Z,17.60
2023-05-15T20:02:38.101Z,12.40
2023-05-15T20:05:05.532Z,16.40
2023-05-15T20:07:32.483Z,17.50
2023-05-15T20:09:59.286Z,17.40
2023-05-15T20:12:26.189Z,13.00
2023-05-15T20:14:53.068Z,9.50
2023-05-15T20:17:20.210Z,15.00
2023-05-15T20:19:48.934Z,20.50
2023-05-15T20:22:16.853Z,21.00
2023-05-15T20:24:45.397Z,15.70
2023-05-15T20:27:13.396Z,15.20
2023-05-15T20:29:40.833Z,11.50
2023-05-15T20:32:08.051Z,13.60
2023-05-15T20:34:36.585Z,10.30
2023-05-15T20:37:03.978Z,11.90
2023-05-15T20:39:31.392Z,19.00
2023-05-15T20:41:58.243Z,17.10
2023-05-15T20:44:25.138Z,13.10
2023-05-15T20:46:51.989Z,10.40
2023-05-15T20:49:18.926Z,9.40
2023-05-15T20:51:48.124Z,8.00
2023-05-15T20:54:15.745Z,13.40
2023-05-15T20:56:42.821Z,14.50
2023-05-15T20:59:10.439Z,8.80
2023-05-15T21:01:37.541Z,14.30
2023-05-15T21:04:04.775Z,11.20
2023-05-15T21:06:33.374Z,14.70
2023-05-15T21:09:00.160Z,8.60
2023-05-15T21:11:27.835Z,12.70
2023-05-15T21:13:55.016Z,11.10
2023-05-15T21:16:22.470Z,9.00
2023-05-15T21:18:49.805Z,16.50
2023-05-15T21:21:21.916Z,11.50
2023-05-15T21:23:48.749Z,11.00
2023-05-15T21:26:16.195Z,12.30
2023-05-15T21:28:43.146Z,11.40
2023-05-15T21:31:11.017Z,9.20
2023-05-15T21:33:38.149Z,10.80
2023-05-15T21:36:05.312Z,11.10
2023-05-15T21:38:32.376Z,11.70
2023-05-15T21:40:59.364Z,7.00
2023-05-15T21:43:26.285Z,8.50
2023-05-15T21:45:56.367Z,10.00
2023-05-15T21:48:23.388Z,10.80
2023-05-15T21:50:51.417Z,10.20
2023-05-15T21:53:24.172Z,9.90
2023-05-15T21:56:01.323Z,11.40
2023-05-15T21:58:28.360Z,8.40
2023-05-15T22:00:55.387Z,6.80
2023-05-15T22:03:22.732Z,11.00
2023-05-15T22:05:51.060Z,6.10
2023-05-15T22:08:18.643Z,9.60
2023-05-15T22:10:45.801Z,5.80
2023-05-15T22:13:12.775Z,6.80
2023-05-15T22:15:39.993Z,15.00
2023-05-15T22:18:07.642Z,7.60
2023-05-15T22:20:35.700Z,8.40
2023-05-15T22:23:02.555Z,9.20
2023-05-15T22:25:29.632Z,9.00
2023-05-15T22:27:56.427Z,10.10
2023-05-15T22:30:23.234Z,10.00
2023-05-15T22:32:56.049Z,9.40
2023-05-15T22:35:23.043Z,10.20
2023-05-15T22:37:50.027Z,7.70
2023-05-15T22:40:17.004Z,7.60
2023-05-15T22:42:43.959Z,8.80
2023-05-15T22:45:11.481Z,9.10
2023-05-15T22:47:43.830Z,8.50
2023-05-15T22:50:10.915Z,7.10
2023-05-15T22:52:38.521Z,8.00
2023-05-15T22:55:06.812Z,8.70
2023-05-15T22:57:34.156Z,7.90
2023-05-15T23:00:01.128Z,11.80
2023-05-15T23:02:28.236Z,7.90
2023-05-15T23:05:00.585Z,7.20
2023-05-15T23:07:27.607Z,8.40
2023-05-15T23:09:59.564Z,8.60
2023-05-15T23:12:26.403Z,13.00
2023-05-15T23:14:53.382Z,8.70
2023-05-15T23:17:24.082Z,10.30
2023-05-15T23:19:57.124Z,9.60
2023-05-15T23:22:24.152Z,10.60
2023-05-15T23:24:50.986Z,11.10
2023-05-15T23:27:18.075Z,10.50
2023-05-15T23:29:45.883Z,9.10
2023-05-15T23:32:12.973Z,16.00
2023-05-15T23:34:39.897Z,9.10
2023-05-15T23:37:07.167Z,12.60
2023-05-15T23:39:35.450Z,12.70
2023-05-15T23:42:02.815Z,12.30
2023-05-15T23:44:34.932Z,11.20
2023-05-15T23:47:02.053Z,14.60
2023-05-15T23:49:29.131Z,13.90
2023-05-15T23:51:56.133Z,16.80
2023-05-15T23:54:22.926Z,17.70
2023-05-15T23:56:49.885Z,16.90
2023-05-15T23:59:17.039Z,19.80
